Time;durP1;ratioP1;P1;durP2;ratioP2;P2;SDS_P1;SDS_P2;PMS_P1;PMS_P2;Temp;Humidity;BMP_temperature;BMP_pressure;BME280_temperature;BME280_humidity;BME280_pressure;Samples;Min_cycle;Max_cycle;Signal;HPM_P1;HPM_P2
2023/07/19 00:00:41;;;;;;;5.57;2.83;;;18.60;99.90;;;;;;5015927;28;20045;-67
2023/07/19 00:03:07;;;;;;;3.50;2.42;;;18.60;99.90;;;;;;5032315;28;20501;-67
2023/07/19 00:05:33;;;;;;;5.78;2.60;;;18.60;99.90;;;;;;5033709;28;20128;-67
2023/07/19 00:08:01;;;;;;;6.85;2.72;;;18.60;99.90;;;;;;5033209;28;20052;-66
2023/07/19 00:10:27;;;;;;;6.65;2.85;;;18.60;99.90;;;;;;5033339;28;20049;-66
2023/07/19 00:12:53;;;;;;;4.13;2.40;;;18.50;99.90;;;;;;5032104;28;20172;-66
2023/07/19 00:15:19;;;;;;;5.45;2.92;;;18.60;99.90;;;;;;5032777;28;20573;-67
2023/07/19 00:17:45;;;;;;;6.55;3.15;;;18.60;99.90;;;;;;5033211;28;20053;-67
2023/07/19 00:20:14;;;;;;;5.55;3.03;;;18.60;99.90;;;;;;5031475;28;20103;-67
2023/07/19 00:22:40;;;;;;;4.32;2.85;;;18.60;99.90;;;;;;5032959;28;20053;-67
2023/07/19 00:25:06;;;;;;;5.90;3.30;;;18.60;99.90;;;;;;5048016;28;20045;-67
2023/07/19 00:27:32;;;;;;;7.55;3.30;;;18.60;99.90;;;;;;5033174;28;20051;-67
2023/07/19 00:29:58;;;;;;;4.47;2.50;;;18.60;99.90;;;;;;5032959;28;20041;-70
2023/07/19 00:32:24;;;;;;;6.47;3.08;;;18.60;99.90;;;;;;5031634;28;20054;-67
2023/07/19 00:34:50;;;;;;;5.93;2.75;;;18.50;99.90;;;;;;5032972;28;20057;-68
2023/07/19 00:37:15;;;;;;;7.47;3.13;;;18.50;99.90;;;;;;5031276;28;20045;-67
2023/07/19 00:39:42;;;;;;;12.13;3.75;;;18.50;99.90;;;;;;5031572;28;20120;-67
2023/07/19 00:42:08;;;;;;;5.90;3.10;;;18.50;99.90;;;;;;5031273;28;20045;-67
2023/07/19 00:44:33;;;;;;;7.63;3.38;;;18.60;99.90;;;;;;5032844;28;20107;-67
2023/07/19 00:47:02;;;;;;;5.63;3.30;;;18.50;99.90;;;;;;5032798;28;20048;-67
2023/07/19 00:49:32;;;;;;;6.18;3.42;;;18.50;99.90;;;;;;5033033;28;20052;-67
2023/07/19 00:52:02;;;;;;;6.30;3.22;;;18.50;99.90;;;;;;5032567;28;20050;-67
2023/07/19 00:54:29;;;;;;;5.32;3.30;;;18.50;99.90;;;;;;5032936;28;20049;-67
2023/07/19 00:56:55;;;;;;;6.10;3.15;;;18.50;99.90;;;;;;5031445;28;20053;-67
2023/07/19 00:59:22;;;;;;;4.93;2.90;;;18.40;99.90;;;;;;5032342;28;20101;-67
2023/07/19 01:01:50;;;;;;;7.68;3.05;;;18.40;99.90;;;;;;5032568;28;20041;-68
2023/07/19 01:04:16;;;;;;;5.70;3.38;;;18.40;99.90;;;;;;5032061;28;20120;-67
2023/07/19 01:06:43;;;;;;;8.07;3.60;;;18.40;99.90;;;;;;5032383;28;20136;-67
2023/07/19 01:09:11;;;;;;;7.22;3.78;;;18.40;99.90;;;;;;5031997;28;20049;-67
2023/07/19 01:11:36;;;;;;;5.70;3.33;;;18.40;99.90;;;;;;5032279;28;20045;-67
2023/07/19 01:14:02;;;;;;;8.68;3.78;;;18.30;99.90;;;;;;5030382;28;20546;-68
2023/07/19 01:16:28;;;;;;;6.55;3.42;;;18.30;99.90;;;;;;5030042;28;20054;-67
2023/07/19 01:18:55;;;;;;;7.25;3.70;;;18.30;99.90;;;;;;5030654;28;20134;-67
2023/07/19 01:21:21;;;;;;;6.20;3.38;;;18.30;99.90;;;;;;5031926;28;20049;-67
2023/07/19 01:23:47;;;;;;;7.55;3.78;;;18.20;99.90;;;;;;5031115;28;20045;-67
2023/07/19 01:26:13;;;;;;;8.05;3.42;;;18.20;99.90;;;;;;5031873;28;20540;-67
2023/07/19 01:28:39;;;;;;;7.13;3.55;;;18.20;99.90;;;;;;5030999;28;20075;-67
2023/07/19 01:31:06;;;;;;;7.32;3.83;;;18.20;99.90;;;;;;5031221;28;20045;-67
2023/07/19 01:33:32;;;;;;;4.97;3.42;;;18.20;99.90;;;;;;5031741;28;20045;-67
2023/07/19 01:35:58;;;;;;;7.88;3.58;;;18.20;99.90;;;;;;5032092;28;20124;-67
2023/07/19 01:38:23;;;;;;;4.60;3.45;;;18.20;99.90;;;;;;5031764;28;20155;-67
2023/07/19 01:40:49;;;;;;;7.63;3.90;;;18.20;99.90;;;;;;5030982;28;20102;-67
2023/07/19 01:43:15;;;;;;;8.30;4.05;;;18.20;99.90;;;;;;5030697;28;20057;-68
2023/07/19 01:45:41;;;;;;;8.60;4.10;;;18.20;99.90;;;;;;5032078;28;20041;-67
2023/07/19 01:48:06;;;;;;;8.25;4.30;;;18.20;99.90;;;;;;5032022;28;20057;-66
2023/07/19 01:50:32;;;;;;;7.90;3.90;;;18.20;99.90;;;;;;5030410;28;20132;-67
2023/07/19 01:52:58;;;;;;;9.32;3.97;;;18.20;99.90;;;;;;5030803;28;20042;-67
2023/07/19 01:55:24;;;;;;;7.82;4.50;;;18.20;99.90;;;;;;5030533;28;20049;-67
2023/07/19 01:57:50;;;;;;;8.65;4.50;;;18.20;99.90;;;;;;5031835;28;20402;-67
2023/07/19 02:00:16;;;;;;;9.77;4.30;;;18.20;99.90;;;;;;5031565;28;20462;-67
2023/07/19 02:02:42;;;;;;;7.78;4.80;;;18.20;99.90;;;;;;5030879;28;20084;-67
2023/07/19 02:05:08;;;;;;;6.57;4.03;;;18.20;99.90;;;;;;5030652;28;20057;-67
2023/07/19 02:07:34;;;;;;;6.22;3.88;;;18.20;99.90;;;;;;5031434;28;20091;-68
2023/07/19 02:10:00;;;;;;;8.95;4.25;;;18.20;99.90;;;;;;5030876;28;20053;-67
2023/07/19 02:12:25;;;;;;;6.13;3.90;;;18.20;99.90;;;;;;5030204;28;20052;-67
2023/07/19 02:14:54;;;;;;;9.27;4.38;;;18.20;99.90;;;;;;5013935;28;20069;-67
2023/07/19 02:17:19;;;;;;;7.70;4.47;;;18.20;99.90;;;;;;5031098;28;20060;-67
2023/07/19 02:19:45;;;;;;;9.20;4.22;;;18.10;99.90;;;;;;5031711;28;20042;-67
2023/07/19 02:22:12;;;;;;;7.00;4.00;;;18.10;99.90;;;;;;5030522;28;20049;-67
2023/07/19 02:24:37;;;;;;;6.50;4.30;;;18.10;99.90;;;;;;5031907;28;20045;-67
2023/07/19 02:27:03;;;;;;;7.47;4.03;;;18.10;99.90;;;;;;5034157;28;20057;-67
2023/07/19 02:29:29;;;;;;;7.35;3.80;;;18.10;99.90;;;;;;5034783;28;20465;-67
2023/07/19 02:31:55;;;;;;;6.40;4.10;;;18.10;99.90;;;;;;5035349;28;20500;-67
2023/07/19 02:34:20;;;;;;;5.97;4.07;;;18.10;99.90;;;;;;5033726;28;20395;-68
2023/07/19 02:36:50;;;;;;;8.57;4.22;;;18.10;99.90;;;;;;5033857;28;20532;-67
2023/07/19 02:39:16;;;;;;;6.18;3.42;;;18.10;99.90;;;;;;5035145;28;20049;-67
2023/07/19 02:41:42;;;;;;;8.27;3.97;;;18.10;99.90;;;;;;5034644;28;20053;-68
2023/07/19 02:44:08;;;;;;;6.63;3.97;;;18.10;99.90;;;;;;5034037;28;20061;-68
2023/07/19 02:46:33;;;;;;;7.90;3.55;;;18.10;99.90;;;;;;5033245;28;20542;-66
2023/07/19 02:48:59;;;;;;;7.40;3.60;;;18.10;99.90;;;;;;5035167;28;20057;-66
2023/07/19 02:51:25;;;;;;;9.07;4.28;;;18.10;99.90;;;;;;5034561;28;20045;-67
2023/07/19 02:53:50;;;;;;;6.88;3.85;;;18.10;99.90;;;;;;5034851;28;20048;-68
2023/07/19 02:56:16;;;;;;;8.60;4.07;;;18.10;99.90;;;;;;5034530;28;20555;-68
2023/07/19 02:58:42;;;;;;;9.20;3.78;;;18.00;99.90;;;;;;5033294;28;20053;-68
2023/07/19 03:01:08;;;;;;;8.55;3.72;;;18.00;99.90;;;;;;5034955;28;20514;-68
2023/07/19 03:03:34;;;;;;;9.18;4.18;;;18.00;99.90;;;;;;5034257;28;20122;-68
2023/07/19 03:06:01;;;;;;;6.55;3.83;;;18.00;99.90;;;;;;5017061;28;20550;-68
2023/07/19 03:08:27;;;;;;;5.78;3.90;;;18.00;99.90;;;;;;5034049;28;20049;-68
2023/07/19 03:10:53;;;;;;;5.32;3.90;;;18.00;99.90;;;;;;5034507;28;20630;-68
2023/07/19 03:13:19;;;;;;;8.30;4.10;;;17.90;99.90;;;;;;5033340;28;20485;-68
2023/07/19 03:15:46;;;;;;;7.18;4.30;;;17.90;99.90;;;;;;5033692;28;20056;-68
2023/07/19 03:18:13;;;;;;;9.10;4.28;;;17.90;99.90;;;;;;5034103;28;20053;-68
2023/07/19 03:20:39;;;;;;;8.15;4.82;;;17.90;99.90;;;;;;5032812;28;20136;-68
2023/07/19 03:23:04;;;;;;;6.30;4.63;;;17.80;99.90;;;;;;5034229;28;20132;-68
2023/07/19 03:25:30;;;;;;;7.53;4.55;;;17.80;99.90;;;;;;5033817;28;20041;-69
2023/07/19 03:27:56;;;;;;;7.20;4.03;;;17.80;99.90;;;;;;5000255;28;20049;-68
2023/07/19 03:30:22;;;;;;;6.85;4.43;;;17.80;99.90;;;;;;5033989;28;20045;-69
2023/07/19 03:32:48;;;;;;;8.48;4.25;;;17.80;99.90;;;;;;5033605;28;20506;-68
2023/07/19 03:35:14;;;;;;;7.47;4.93;;;17.80;99.90;;;;;;5033004;28;20056;-68
2023/07/19 03:37:44;;;;;;;7.82;4.80;;;17.80;99.90;;;;;;5032482;28;20045;-66
2023/07/19 03:40:11;;;;;;;9.82;4.35;;;17.80;99.90;;;;;;5033421;28;20396;-66
2023/07/19 03:42:36;;;;;;;9.45;4.47;;;17.70;99.90;;;;;;5033168;28;20515;-67
2023/07/19 03:45:03;;;;;;;6.15;4.13;;;17.70;99.90;;;;;;5033656;28;20088;-67
2023/07/19 03:47:29;;;;;;;10.13;4.57;;;17.70;99.90;;;;;;5033333;28;20058;-70
2023/07/19 03:49:55;;;;;;;8.02;4.38;;;17.70;99.90;;;;;;5016047;28;20387;-66
2023/07/19 03:52:20;;;;;;;10.10;4.93;;;17.70;99.90;;;;;;5033406;28;20056;-68
2023/07/19 03:54:46;;;;;;;10.50;5.32;;;17.70;99.90;;;;;;5033134;28;20132;-68
2023/07/19 03:57:12;;;;;;;10.65;5.22;;;17.70;99.90;;;;;;5033468;28;20081;-68
2023/07/19 03:59:37;;;;;;;7.72;5.20;;;17.70;99.90;;;;;;5033190;28;20046;-67
2023/07/19 04:02:03;;;;;;;7.85;5.32;;;17.70;99.90;;;;;;5032019;28;20517;-67
2023/07/19 04:04:29;;;;;;;12.30;6.15;;;17.70;99.90;;;;;;5015668;28;20092;-69
2023/07/19 04:06:55;;;;;;;7.28;5.45;;;17.70;99.90;;;;;;5033203;28;20038;-66
2023/07/19 04:09:21;;;;;;;8.95;5.18;;;17.70;99.90;;;;;;5033476;28;20394;-66
2023/07/19 04:11:47;;;;;;;8.85;6.00;;;17.70;99.90;;;;;;5032022;28;20067;-66
2023/07/19 04:14:12;;;;;;;12.98;5.85;;;17.70;99.90;;;;;;5033297;28;20124;-67
2023/07/19 04:16:40;;;;;;;9.32;5.82;;;17.70;99.90;;;;;;5031126;28;20050;-67
2023/07/19 04:19:05;;;;;;;7.68;5.95;;;17.70;99.90;;;;;;5033306;28;20111;-66
2023/07/19 04:21:31;;;;;;;11.43;6.07;;;17.70;99.90;;;;;;5032183;28;20072;-67
2023/07/19 04:23:57;;;;;;;8.20;5.45;;;17.70;99.90;;;;;;5032913;28;20054;-66
2023/07/19 04:26:23;;;;;;;9.35;5.90;;;17.70;99.90;;;;;;5033153;28;20050;-67
2023/07/19 04:28:49;;;;;;;7.50;5.68;;;17.70;99.90;;;;;;5032640;28;20048;-66
2023/07/19 04:31:14;;;;;;;8.57;5.75;;;17.70;99.90;;;;;;5032665;28;20041;-66
2023/07/19 04:33:41;;;;;;;10.45;6.60;;;17.70;99.90;;;;;;5015373;28;20041;-66
2023/07/19 04:36:14;;;;;;;8.77;6.10;;;17.70;99.90;;;;;;5031779;28;20052;-66
2023/07/19 04:38:40;;;;;;;10.68;6.10;;;17.70;99.90;;;;;;5032411;28;20045;-67
2023/07/19 04:41:07;;;;;;;10.00;6.13;;;17.70;99.90;;;;;;5032891;28;20061;-68
2023/07/19 04:43:32;;;;;;;9.55;6.32;;;17.80;99.90;;;;;;5048239;28;20063;-68
2023/07/19 04:45:58;;;;;;;11.23;6.18;;;17.80;99.90;;;;;;5031415;28;20053;-72
2023/07/19 04:48:24;;;;;;;11.43;6.57;;;17.80;99.90;;;;;;5032628;28;20042;-70
2023/07/19 04:50:54;;;;;;;11.02;6.30;;;17.80;99.90;;;;;;5031895;28;20048;-71
2023/07/19 04:53:21;;;;;;;12.80;6.85;;;17.80;99.90;;;;;;5032486;28;20495;-68
2023/07/19 04:55:48;;;;;;;9.75;5.78;;;17.80;99.90;;;;;;5031007;28;20045;-68
2023/07/19 04:58:14;;;;;;;8.30;5.72;;;17.80;99.90;;;;;;5032456;28;20045;-68
2023/07/19 05:00:40;;;;;;;9.95;5.93;;;17.70;99.90;;;;;;5014215;28;20057;-69
2023/07/19 05:03:05;;;;;;;8.23;5.68;;;17.70;99.90;;;;;;5031066;28;20041;-67
2023/07/19 05:05:31;;;;;;;9.27;5.78;;;17.70;99.90;;;;;;5031108;28;20045;-67
2023/07/19 05:07:58;;;;;;;10.13;5.90;;;17.70;99.90;;;;;;5031009;28;20111;-67
2023/07/19 05:10:24;;;;;;;8.60;5.57;;;17.70;99.90;;;;;;5031367;28;20446;-66
2023/07/19 05:12:50;;;;;;;6.75;5.05;;;17.70;99.90;;;;;;5031934;28;20041;-66
2023/07/19 05:15:16;;;;;;;7.05;5.32;;;17.70;99.90;;;;;;5030873;28;20490;-67
2023/07/19 05:17:41;;;;;;;7.72;5.32;;;17.70;99.90;;;;;;5014187;28;20053;-70
2023/07/19 05:20:08;;;;;;;10.85;5.30;;;17.70;99.90;;;;;;5032450;28;20047;-67
2023/07/19 05:22:33;;;;;;;7.63;5.28;;;17.70;99.90;;;;;;5032301;28;20135;-67
2023/07/19 05:25:00;;;;;;;10.45;5.05;;;17.70;99.90;;;;;;5030983;28;20460;-67
2023/07/19 05:27:25;;;;;;;7.65;4.80;;;17.70;99.90;;;;;;5031163;28;20057;-66
2023/07/19 05:29:51;;;;;;;8.93;5.03;;;17.70;99.90;;;;;;5031618;28;20103;-66
2023/07/19 05:32:17;;;;;;;7.38;5.28;;;17.70;99.90;;;;;;5032165;28;20041;-66
2023/07/19 05:34:42;;;;;;;10.10;5.35;;;17.70;99.90;;;;;;5032012;28;20388;-69
2023/07/19 05:37:08;;;;;;;5.80;4.68;;;17.70;99.90;;;;;;5030718;28;20041;-67
2023/07/19 05:39:34;;;;;;;7.93;4.57;;;17.70;99.90;;;;;;5030877;28;20045;-67
2023/07/19 05:42:00;;;;;;;7.10;5.03;;;17.70;99.90;;;;;;5030529;28;20099;-67
2023/07/19 05:44:26;;;;;;;8.75;4.68;;;17.70;99.90;;;;;;5031833;28;20376;-66
2023/07/19 05:46:53;;;;;;;11.18;5.35;;;17.70;99.90;;;;;;5030402;28;20049;-67
2023/07/19 05:49:18;;;;;;;7.72;5.05;;;17.70;99.90;;;;;;5032060;28;20041;-67
2023/07/19 05:51:44;;;;;;;9.50;5.35;;;17.70;99.90;;;;;;5032029;28;20041;-69
2023/07/19 05:54:10;;;;;;;9.13;5.18;;;17.70;99.90;;;;;;5031370;28;20067;-67
2023/07/19 05:56:36;;;;;;;7.78;5.13;;;17.70;99.90;;;;;;5032088;28;20049;-67
2023/07/19 05:59:04;;;;;;;7.70;5.10;;;17.70;99.90;;;;;;5031737;28;20084;-67
2023/07/19 06:01:33;;;;;;;7.85;4.75;;;17.70;99.90;;;;;;5035192;28;20099;-66
2023/07/19 06:03:58;;;;;;;10.93;4.90;;;17.70;99.90;;;;;;5034553;28;20061;-67
2023/07/19 06:06:25;;;;;;;10.45;4.95;;;17.70;99.90;;;;;;5035908;28;20395;-67
2023/07/19 06:08:51;;;;;;;10.20;4.90;;;17.70;99.90;;;;;;5035570;28;20088;-68
2023/07/19 06:11:16;;;;;;;6.68;4.13;;;17.70;99.90;;;;;;5035954;28;20052;-67
2023/07/19 06:13:42;;;;;;;9.73;4.40;;;17.70;99.90;;;;;;5035643;28;20045;-68
2023/07/19 06:16:08;;;;;;;9.40;3.92;;;17.70;99.90;;;;;;5017474;28;20057;-67
2023/07/19 06:18:33;;;;;;;9.05;4.00;;;17.60;99.90;;;;;;5035661;28;20498;-67
2023/07/19 06:20:59;;;;;;;6.25;3.75;;;17.60;99.90;;;;;;5035189;28;20447;-66
2023/07/19 06:23:25;;;;;;;8.77;3.50;;;17.50;99.90;;;;;;5034370;28;20180;-67
2023/07/19 06:25:51;;;;;;;7.18;3.45;;;17.40;99.90;;;;;;5034057;28;20038;-69
2023/07/19 06:28:17;;;;;;;7.85;3.22;;;17.40;99.90;;;;;;5034569;28;20046;-67
2023/07/19 06:30:42;;;;;;;7.38;2.83;;;17.40;99.90;;;;;;5017929;28;20052;-67
2023/07/19 06:33:09;;;;;;;4.72;2.55;;;17.40;99.90;;;;;;5033988;28;20073;-68
2023/07/19 06:35:35;;;;;;;8.93;2.97;;;17.40;99.90;;;;;;5050877;28;20046;-70
2023/07/19 06:38:01;;;;;;;6.78;2.88;;;17.30;99.90;;;;;;5034830;28;20405;-67
2023/07/19 06:40:26;;;;;;;7.05;2.72;;;17.40;99.90;;;;;;5035594;28;20124;-67
2023/07/19 06:42:55;;;;;;;9.00;2.65;;;17.40;99.90;;;;;;5034127;28;20434;-72
2023/07/19 06:45:21;;;;;;;11.32;2.70;;;17.40;99.90;;;;;;5035071;28;20045;-68
2023/07/19 06:47:46;;;;;;;6.93;2.85;;;17.40;99.90;;;;;;5034117;28;20145;-68
2023/07/19 06:50:13;;;;;;;6.82;2.70;;;17.40;99.90;;;;;;5034633;28;20057;-68
2023/07/19 06:52:38;;;;;;;7.57;2.67;;;17.40;99.90;;;;;;5034524;28;20499;-67
2023/07/19 06:55:05;;;;;;;6.65;2.78;;;17.40;99.90;;;;;;5034551;28;20087;-67
2023/07/19 06:57:31;;;;;;;5.90;2.70;;;17.50;99.90;;;;;;5035100;28;20394;-67
2023/07/19 06:59:58;;;;;;;13.77;3.03;;;17.60;99.90;;;;;;5034471;28;20045;-69
2023/07/19 07:02:23;;;;;;;6.60;3.03;;;17.60;99.90;;;;;;5034681;28;20484;-66
2023/07/19 07:04:52;;;;;;;6.50;3.00;;;17.60;99.90;;;;;;5034714;28;20053;-66
2023/07/19 07:07:19;;;;;;;6.40;2.95;;;17.70;99.90;;;;;;5034263;28;20077;-66
2023/07/19 07:09:45;;;;;;;5.45;2.80;;;17.70;99.90;;;;;;5034732;28;20049;-66
2023/07/19 07:12:12;;;;;;;7.03;3.10;;;17.70;99.90;;;;;;5031540;28;20047;-66
2023/07/19 07:14:38;;;;;;;13.30;3.75;;;17.80;99.90;;;;;;5033624;28;20395;-67
2023/07/19 07:17:05;;;;;;;8.68;4.07;;;17.90;99.90;;;;;;5049016;28;20049;-70
2023/07/19 07:19:31;;;;;;;10.38;3.00;;;18.10;99.90;;;;;;5034340;28;20045;-67
2023/07/19 07:21:57;;;;;;;8.48;3.35;;;18.20;99.90;;;;;;5049817;28;20130;-69
2023/07/19 07:24:23;;;;;;;8.45;2.70;;;18.40;99.90;;;;;;5034273;28;20176;-67
2023/07/19 07:26:49;;;;;;;6.75;2.83;;;18.40;99.90;;;;;;5034505;28;20546;-67
2023/07/19 07:29:15;;;;;;;5.95;2.97;;;18.50;99.90;;;;;;5016376;28;20092;-68
2023/07/19 07:31:41;;;;;;;9.93;2.55;;;18.50;99.90;;;;;;5032815;28;20045;-66
2023/07/19 07:34:09;;;;;;;6.07;3.00;;;18.60;99.90;;;;;;5016132;28;20056;-67
2023/07/19 07:36:35;;;;;;;8.25;2.97;;;18.50;99.90;;;;;;5034054;28;20135;-67
2023/07/19 07:39:01;;;;;;;8.40;2.85;;;18.50;99.90;;;;;;5033933;28;20057;-69
2023/07/19 07:41:26;;;;;;;7.38;2.78;;;18.50;99.90;;;;;;5034047;28;20050;-66
2023/07/19 07:43:52;;;;;;;5.20;2.70;;;18.60;99.90;;;;;;5033822;28;20133;-66
2023/07/19 07:46:18;;;;;;;4.47;2.20;;;18.60;99.90;;;;;;5032419;28;20391;-68
2023/07/19 07:48:44;;;;;;;7.82;2.65;;;18.70;99.90;;;;;;5016021;28;20037;-69
2023/07/19 07:51:11;;;;;;;6.47;2.30;;;18.90;99.90;;;;;;5015820;28;20053;-69
2023/07/19 07:53:36;;;;;;;7.95;2.30;;;18.90;99.90;;;;;;5033672;28;20042;-69
2023/07/19 07:56:02;;;;;;;5.63;2.10;;;19.00;99.90;;;;;;5033636;28;20092;-72
2023/07/19 07:58:28;;;;;;;7.65;2.50;;;19.00;99.90;;;;;;5032092;28;20412;-68
2023/07/19 08:00:54;;;;;;;6.88;2.40;;;19.00;99.90;;;;;;5016144;28;20534;-69
2023/07/19 08:03:20;;;;;;;5.85;2.28;;;19.00;99.90;;;;;;5033590;28;20080;-70
2023/07/19 08:05:48;;;;;;;5.53;2.40;;;19.30;99.90;;;;;;5015920;28;20080;-69
2023/07/19 08:08:14;;;;;;;6.78;2.60;;;19.60;99.90;;;;;;5015652;28;20053;-69
2023/07/19 08:10:39;;;;;;;7.30;2.47;;;19.80;99.90;;;;;;5032270;28;20104;-68
2023/07/19 08:13:08;;;;;;;5.22;2.17;;;20.00;99.90;;;;;;5032461;28;20475;-72
2023/07/19 08:15:34;;;;;;;4.85;2.17;;;20.40;99.90;;;;;;5032037;28;20053;-69
2023/07/19 08:18:01;;;;;;;6.75;2.10;;;21.00;99.90;;;;;;5032180;28;20136;-69
2023/07/19 08:20:27;;;;;;;6.05;2.80;;;21.30;99.90;;;;;;5033004;28;20524;-68
2023/07/19 08:22:53;;;;;;;5.35;2.42;;;21.70;99.90;;;;;;5015426;28;20045;-68
2023/07/19 08:25:19;;;;;;;5.35;2.22;;;22.60;99.90;;;;;;5031572;28;20056;-69
2023/07/19 08:27:45;;;;;;;6.63;2.20;;;23.50;99.90;;;;;;5032118;28;20042;-70
2023/07/19 08:30:18;;;;;;;6.28;1.98;;;24.50;99.90;;;;;;5015282;28;20184;-68
2023/07/19 08:32:45;;;;;;;5.57;2.03;;;24.90;99.90;;;;;;5048342;28;20458;-69
2023/07/19 08:35:12;;;;;;;4.97;1.98;;;24.80;99.90;;;;;;5031771;28;20045;-69
2023/07/19 08:37:38;;;;;;;6.20;2.10;;;24.80;99.90;;;;;;5031947;28;20050;-69
2023/07/19 08:40:04;;;;;;;6.28;2.00;;;24.80;99.90;;;;;;5032208;28;20045;-70
2023/07/19 08:42:31;;;;;;;4.55;1.60;;;25.10;99.90;;;;;;5048081;28;20307;-69
2023/07/19 08:44:57;;;;;;;5.22;2.08;;;25.60;99.50;;;;;;5032481;28;20053;-71
2023/07/19 08:47:23;;;;;;;3.83;1.70;;;26.20;97.40;;;;;;5030997;28;20111;-70
2023/07/19 08:49:49;;;;;;;6.30;1.92;;;26.50;97.40;;;;;;5031549;28;20049;-69
2023/07/19 08:52:16;;;;;;;5.38;1.60;;;26.60;97.30;;;;;;5031560;28;20059;-68
2023/07/19 08:54:42;;;;;;;4.80;1.70;;;26.20;97.10;;;;;;5031207;28;20067;-68
2023/07/19 08:57:07;;;;;;;7.30;1.60;;;25.70;97.60;;;;;;5031323;28;20049;-68
2023/07/19 08:59:34;;;;;;;4.97;1.67;;;24.90;98.30;;;;;;5032166;28;20132;-68
2023/07/19 09:02:00;;;;;;;5.00;2.15;;;24.10;99.30;;;;;;5032787;28;20479;-69
2023/07/19 09:04:26;;;;;;;7.80;1.90;;;23.40;99.90;;;;;;5032373;28;20052;-69
2023/07/19 09:06:52;;;;;;;6.60;1.88;;;22.80;99.90;;;;;;5031549;28;20048;-68
2023/07/19 09:09:18;;;;;;;4.63;1.75;;;22.40;99.90;;;;;;5031984;28;20045;-68
2023/07/19 09:11:49;;;;;;;6.75;1.83;;;22.10;99.90;;;;;;5031304;28;20143;-68
2023/07/19 09:14:15;;;;;;;5.20;1.88;;;21.80;99.90;;;;;;5032293;28;20045;-71
2023/07/19 09:16:41;;;;;;;7.18;2.05;;;21.50;99.90;;;;;;5030874;28;20057;-68
2023/07/19 09:19:10;;;;;;;4.88;1.98;;;21.20;99.90;;;;;;5015132;28;20057;-68
2023/07/19 09:21:39;;;;;;;5.43;2.00;;;21.10;99.90;;;;;;5031916;28;20045;-67
2023/07/19 09:24:06;;;;;;;4.32;1.80;;;21.00;99.90;;;;;;5015157;28;20045;-67
2023/07/19 09:26:47;;;;;;;7.65;2.13;;;20.90;99.90;;;;;;5032012;28;20400;-68
2023/07/19 09:29:13;;;;;;;5.25;1.90;;;21.00;99.90;;;;;;5032333;28;20125;-68
2023/07/19 09:31:55;;;;;;;5.72;1.90;;;21.00;99.90;;;;;;5030527;28;20502;-68
2023/07/19 09:34:37;;;;;;;4.72;1.90;;;21.00;99.90;;;;;;5031031;28;20072;-68
2023/07/19 09:37:04;;;;;;;4.35;2.28;;;21.00;99.90;;;;;;5032118;28;20037;-68
2023/07/19 09:39:31;;;;;;;4.13;1.85;;;20.70;99.90;;;;;;5031576;28;20143;-70
2023/07/19 09:41:57;;;;;;;6.35;1.98;;;20.50;99.90;;;;;;5026290;28;20048;-70
2023/07/19 09:44:23;;;;;;;4.93;2.10;;;20.60;99.90;;;;;;5027738;28;20434;-69
2023/07/19 09:46:49;;;;;;;6.55;2.00;;;20.80;99.90;;;;;;5030707;28;20072;-69
2023/07/19 09:49:15;;;;;;;3.90;1.65;;;20.90;99.90;;;;;;5031419;28;20050;-69
2023/07/19 09:51:42;;;;;;;3.50;1.60;;;20.80;99.90;;;;;;5030677;28;20050;-67
2023/07/19 09:54:13;;;;;;;2.47;1.45;;;20.80;99.90;;;;;;5030303;28;20049;-69
2023/07/19 09:56:40;;;;;;;3.22;1.58;;;20.80;99.90;;;;;;5030101;28;20045;-68
2023/07/19 09:59:10;;;;;;;5.78;2.08;;;20.80;99.90;;;;;;5031601;28;20103;-68
2023/07/19 10:01:37;;;;;;;5.03;1.80;;;20.90;99.90;;;;;;5030322;28;20414;-68
2023/07/19 10:04:23;;;;;;;4.50;1.65;;;20.90;99.90;;;;;;5031621;28;20049;-67
2023/07/19 10:07:10;;;;;;;3.50;1.42;;;21.00;99.90;;;;;;5030753;28;20072;-69
2023/07/19 10:09:42;;;;;;;4.93;1.70;;;21.20;99.90;;;;;;5031141;28;20079;-69
2023/07/19 10:12:17;;;;;;;4.18;1.60;;;21.30;99.90;;;;;;5028887;28;20049;-68
2023/07/19 10:14:55;;;;;;;5.85;1.70;;;21.40;99.90;;;;;;5030524;28;20156;-69
2023/07/19 10:17:22;;;;;;;3.90;1.58;;;21.20;99.90;;;;;;5029462;28;20088;-70
2023/07/19 10:19:58;;;;;;;3.17;1.50;;;21.10;99.90;;;;;;5029487;28;20057;-68
2023/07/19 10:22:52;;;;;;;4.13;1.58;;;21.10;99.90;;;;;;5028817;28;20050;-68
2023/07/19 10:25:22;;;;;;;6.80;1.77;;;21.10;99.90;;;;;;5028518;28;20046;-69
2023/07/19 10:27:59;;;;;;;4.28;1.70;;;21.10;99.90;;;;;;5028088;28;20057;-68
2023/07/19 10:30:48;;;;;;;5.03;1.83;;;21.40;99.90;;;;;;5029635;28;20100;-70
2023/07/19 10:33:25;;;;;;;3.03;1.40;;;21.50;99.90;;;;;;5026858;28;20498;-69
2023/07/19 10:35:58;;;;;;;4.22;1.63;;;21.40;99.90;;;;;;5045680;28;20133;-70
2023/07/19 10:38:30;;;;;;;5.88;1.80;;;21.50;99.90;;;;;;5030364;28;20156;-70
2023/07/19 10:41:07;;;;;;;5.20;1.50;;;21.60;99.90;;;;;;5026975;28;20046;-69
2023/07/19 10:43:37;;;;;;;6.18;1.60;;;21.70;99.90;;;;;;5030137;28;20049;-70
2023/07/19 10:46:04;;;;;;;4.53;1.60;;;21.70;99.90;;;;;;5030671;28;20053;-68
2023/07/19 10:48:32;;;;;;;4.40;1.55;;;21.70;99.90;;;;;;5031523;28;20077;-69
2023/07/19 10:51:00;;;;;;;4.22;1.60;;;21.90;99.90;;;;;;5034336;28;20076;-68
2023/07/19 10:53:27;;;;;;;3.15;1.48;;;22.20;99.90;;;;;;5031999;28;20454;-70
2023/07/19 10:55:58;;;;;;;3.45;1.35;;;22.30;99.90;;;;;;5033827;28;20102;-69
2023/07/19 10:58:25;;;;;;;4.45;1.55;;;22.30;99.90;;;;;;5033346;28;20449;-68
2023/07/19 11:00:52;;;;;;;5.97;1.50;;;22.20;99.90;;;;;;5033591;28;20045;-69
2023/07/19 11:03:22;;;;;;;2.85;1.20;;;22.20;99.90;;;;;;5032470;28;20045;-69
2023/07/19 11:05:49;;;;;;;3.88;1.30;;;22.10;99.90;;;;;;5030344;28;20636;-69
2023/07/19 11:08:23;;;;;;;2.55;1.27;;;22.00;99.90;;;;;;5032422;28;20103;-70
2023/07/19 11:10:50;;;;;;;3.22;1.40;;;22.10;99.90;;;;;;5031754;28;20456;-69
2023/07/19 11:13:17;;;;;;;3.63;1.60;;;22.30;99.90;;;;;;5034002;28;20083;-69
2023/07/19 11:15:49;;;;;;;4.35;1.30;;;22.50;99.90;;;;;;5032675;28;20045;-69
2023/07/19 11:18:36;;;;;;;2.85;1.17;;;22.50;99.90;;;;;;5033692;28;20505;-69
2023/07/19 11:21:03;;;;;;;5.05;1.45;;;22.50;99.90;;;;;;5033501;28;20590;-69
2023/07/19 11:23:30;;;;;;;3.05;1.40;;;22.60;99.90;;;;;;5032466;28;20122;-69
2023/07/19 11:26:10;;;;;;;6.88;1.17;;;22.60;99.90;;;;;;5033381;28;20038;-70
2023/07/19 11:28:47;;;;;;;3.10;1.33;;;22.50;99.90;;;;;;5031478;28;20045;-69
2023/07/19 11:31:33;;;;;;;3.08;1.35;;;22.50;99.90;;;;;;5033152;28;20046;-68
2023/07/19 11:33:58;;;;;;;3.15;1.35;;;22.50;99.90;;;;;;5032395;28;20053;-69
2023/07/19 11:36:25;;;;;;;4.05;1.50;;;22.20;99.90;;;;;;5034002;28;20128;-68
2023/07/19 11:38:51;;;;;;;4.85;1.20;;;22.20;99.90;;;;;;5033624;28;20052;-69
2023/07/19 11:41:17;;;;;;;1.83;1.10;;;22.10;99.90;;;;;;5033920;28;20081;-69
2023/07/19 11:43:45;;;;;;;3.97;1.13;;;22.20;99.90;;;;;;5033155;28;20049;-69
2023/07/19 11:46:13;;;;;;;4.88;1.30;;;22.20;99.90;;;;;;5032686;28;20129;-70
2023/07/19 11:48:39;;;;;;;3.38;1.33;;;22.40;99.90;;;;;;5032146;28;20502;-70
2023/07/19 11:51:05;;;;;;;3.42;1.30;;;22.40;99.90;;;;;;5028455;28;20041;-70
2023/07/19 11:53:31;;;;;;;4.15;1.52;;;22.40;99.90;;;;;;5033479;28;20124;-69
2023/07/19 11:55:57;;;;;;;2.75;1.25;;;22.30;99.90;;;;;;5031738;28;20092;-70
2023/07/19 11:58:23;;;;;;;2.78;1.23;;;22.10;99.90;;;;;;5031228;28;20049;-69
2023/07/19 12:00:48;;;;;;;3.63;1.50;;;22.00;99.90;;;;;;5031591;28;20041;-69
2023/07/19 12:03:14;;;;;;;2.70;1.30;;;22.00;99.90;;;;;;5031977;28;20050;-69
2023/07/19 12:05:40;;;;;;;1.80;1.00;;;22.10;99.90;;;;;;5029728;28;20514;-71
2023/07/19 12:08:06;;;;;;;2.60;0.98;;;22.20;99.90;;;;;;5033177;28;20046;-70
2023/07/19 12:10:32;;;;;;;4.43;1.27;;;22.30;99.90;;;;;;5033439;28;20112;-69
2023/07/19 12:12:58;;;;;;;1.98;1.00;;;22.30;99.90;;;;;;5032477;28;20045;-69
2023/07/19 12:15:23;;;;;;;2.28;1.05;;;22.30;99.90;;;;;;5015809;28;20075;-69
2023/07/19 12:17:50;;;;;;;2.75;1.30;;;22.10;99.90;;;;;;5032923;28;20103;-69
2023/07/19 12:20:16;;;;;;;5.18;1.25;;;22.10;99.90;;;;;;5032935;28;20446;-69
2023/07/19 12:22:43;;;;;;;2.90;1.20;;;22.10;99.90;;;;;;5033000;28;20051;-69
2023/07/19 12:25:10;;;;;;;4.07;1.20;;;22.20;99.90;;;;;;5047613;28;20444;-69
2023/07/19 12:27:36;;;;;;;4.40;1.00;;;22.30;99.90;;;;;;5031302;28;20045;-68
2023/07/19 12:30:02;;;;;;;3.80;1.15;;;22.30;99.90;;;;;;5031394;28;20045;-69
2023/07/19 12:32:28;;;;;;;1.92;1.15;;;22.30;99.90;;;;;;5030642;28;20056;-69
2023/07/19 12:34:55;;;;;;;2.38;1.02;;;22.20;99.70;;;;;;5029353;28;20128;-69
2023/07/19 12:37:21;;;;;;;2.40;1.00;;;22.20;99.80;;;;;;5030501;28;20049;-70
2023/07/19 12:39:48;;;;;;;3.42;1.17;;;22.20;99.70;;;;;;5032462;28;20045;-71
2023/07/19 12:42:14;;;;;;;1.92;1.10;;;22.10;99.90;;;;;;5029573;28;20053;-71
2023/07/19 12:44:41;;;;;;;2.63;1.10;;;22.20;99.90;;;;;;5029735;28;20187;-71